createdAt,value
2019-03-19T00:01:25.794Z,4.90
2019-03-19T00:04:30.144Z,4.90
2019-03-19T00:07:36.045Z,4.90
2019-03-19T00:10:40.464Z,4.90
2019-03-19T00:13:44.968Z,4.80
2019-03-19T00:16:49.460Z,4.80
2019-03-19T00:19:53.916Z,4.90
2019-03-19T00:22:58.192Z,4.80
2019-03-19T00:26:02.592Z,4.90
2019-03-19T00:29:06.946Z,4.80
2019-03-19T00:32:11.359Z,4.80
2019-03-19T00:35:15.723Z,4.90
2019-03-19T00:38:20.142Z,4.90
2019-03-19T00:41:24.568Z,4.80
2019-03-19T00:44:28.867Z,4.80
2019-03-19T00:47:33.191Z,4.80
2019-03-19T00:50:37.575Z,4.80
2019-03-19T00:53:41.939Z,4.80
2019-03-19T00:56:46.431Z,4.80
2019-03-19T00:59:50.792Z,4.80
2019-03-19T01:02:55.211Z,4.80
2019-03-19T01:05:59.587Z,4.80
2019-03-19T01:09:05.710Z,4.80
2019-03-19T01:12:10.219Z,4.80
2019-03-19T01:15:15.156Z,4.80
2019-03-19T01:18:19.567Z,4.70
2019-03-19T01:21:23.981Z,4.70
2019-03-19T01:24:29.255Z,4.70
2019-03-19T01:27:33.579Z,4.70
2019-03-19T01:30:37.932Z,4.70
2019-03-19T01:33:42.232Z,4.60
2019-03-19T01:36:46.590Z,4.60
2019-03-19T01:39:50.972Z,4.60
2019-03-19T01:42:55.339Z,4.60
2019-03-19T01:45:59.655Z,4.60
2019-03-19T01:49:04.035Z,4.60
2019-03-19T01:52:08.423Z,4.60
2019-03-19T01:55:13.312Z,4.60
2019-03-19T01:58:17.687Z,4.60
2019-03-19T02:01:21.982Z,4.50
2019-03-19T02:04:26.392Z,4.50
2019-03-19T02:07:30.672Z,4.50
2019-03-19T02:10:35.157Z,4.50
2019-03-19T02:13:39.662Z,4.50
2019-03-19T02:16:44.061Z,4.40
2019-03-19T02:19:48.419Z,4.40
2019-03-19T02:22:52.789Z,4.40
2019-03-19T02:25:57.150Z,4.40
2019-03-19T02:29:01.537Z,4.40
2019-03-19T02:32:05.897Z,4.40
2019-03-19T02:35:10.393Z,4.40
2019-03-19T02:38:14.758Z,4.40
2019-03-19T02:41:19.152Z,4.40
2019-03-19T02:44:23.496Z,4.30
2019-03-19T02:47:27.875Z,4.30
2019-03-19T02:50:32.421Z,4.30
2019-03-19T02:53:36.818Z,4.30
2019-03-19T02:56:41.167Z,4.20
2019-03-19T02:59:45.566Z,4.20
2019-03-19T03:02:49.936Z,4.20
2019-03-19T03:05:54.333Z,4.20
2019-03-19T03:08:58.686Z,4.20
2019-03-19T03:12:03.078Z,4.10
2019-03-19T03:15:08.016Z,4.10
2019-03-19T03:18:12.429Z,4.20
2019-03-19T03:21:16.795Z,4.10
2019-03-19T03:24:21.193Z,4.10
2019-03-19T03:27:25.554Z,4.10
2019-03-19T03:30:29.937Z,4.10
2019-03-19T03:33:34.313Z,4.10
2019-03-19T03:36:38.721Z,4.10
2019-03-19T03:39:43.064Z,4.10
2019-03-19T03:42:47.494Z,4.10
2019-03-19T03:45:51.851Z,4.10
2019-03-19T03:48:56.277Z,4.10
2019-03-19T03:52:00.607Z,4.00
2019-03-19T03:55:05.311Z,4.00
2019-03-19T03:58:09.616Z,4.10
2019-03-19T04:01:14.103Z,4.10
2019-03-19T04:04:18.458Z,4.10
2019-03-19T04:07:22.860Z,4.00
2019-03-19T04:10:27.268Z,4.00
2019-03-19T04:13:33.440Z,4.00
2019-03-19T04:16:37.752Z,4.00
2019-03-19T04:19:42.138Z,4.00
2019-03-19T04:22:46.988Z,4.00
2019-03-19T04:25:51.610Z,4.00
2019-03-19T04:28:55.957Z,4.00
2019-03-19T04:32:00.336Z,3.90
2019-03-19T04:35:05.586Z,4.00
2019-03-19T04:38:09.963Z,4.00
2019-03-19T04:41:14.480Z,3.90
2019-03-19T04:44:18.884Z,3.90
2019-03-19T04:47:23.276Z,4.00
2019-03-19T04:50:27.642Z,3.90
2019-03-19T04:53:31.999Z,3.90
2019-03-19T04:56:36.444Z,3.90
2019-03-19T04:59:40.820Z,3.90
2019-03-19T05:02:46.309Z,3.90
2019-03-19T05:05:50.709Z,3.90
2019-03-19T05:08:55.067Z,3.90
2019-03-19T05:11:59.454Z,3.90
2019-03-19T05:15:04.190Z,3.90
2019-03-19T05:18:08.570Z,3.90
2019-03-19T05:21:12.978Z,4.00
2019-03-19T05:24:17.396Z,4.00
2019-03-19T05:27:21.807Z,4.00
2019-03-19T05:30:26.195Z,4.00
2019-03-19T05:33:30.573Z,4.00
2019-03-19T05:36:34.942Z,4.00
2019-03-19T05:39:39.335Z,4.10
2019-03-19T05:42:43.724Z,4.10
2019-03-19T05:45:48.137Z,4.10
2019-03-19T05:48:52.473Z,4.10
2019-03-19T05:51:56.872Z,4.20
2019-03-19T05:55:01.262Z,4.10
2019-03-19T05:58:24.648Z,4.20
2019-03-19T06:01:29.010Z,4.20
2019-03-19T06:04:33.493Z,4.20
2019-03-19T06:07:37.839Z,4.30
2019-03-19T06:10:42.263Z,4.30
2019-03-19T06:13:46.661Z,4.30
2019-03-19T06:16:51.072Z,4.40
2019-03-19T06:19:55.496Z,4.40
2019-03-19T06:22:59.907Z,4.40
2019-03-19T06:26:04.390Z,4.40
2019-03-19T06:29:08.779Z,4.50
2019-03-19T06:32:13.133Z,4.50
2019-03-19T06:35:17.557Z,4.50
2019-03-19T06:38:21.963Z,4.60
2019-03-19T06:41:26.352Z,4.60
2019-03-19T06:44:30.704Z,4.60
2019-03-19T06:47:35.205Z,4.70
2019-03-19T06:50:45.145Z,4.80
2019-03-19T06:53:45.825Z,4.80
2019-03-19T06:56:50.340Z,4.80
2019-03-19T06:59:54.688Z,4.90
2019-03-19T07:02:59.088Z,4.90
2019-03-19T07:06:03.503Z,5.00
2019-03-19T07:09:09.259Z,5.00
2019-03-19T07:12:13.664Z,5.10
2019-03-19T07:15:18.090Z,5.10
2019-03-19T07:18:22.503Z,5.10
2019-03-19T07:21:26.882Z,5.20
2019-03-19T07:24:31.342Z,5.30
2019-03-19T07:27:35.915Z,5.30
2019-03-19T07:30:42.640Z,5.30
2019-03-19T07:33:47.001Z,5.40
2019-03-19T07:36:51.376Z,5.50
2019-03-19T07:39:55.755Z,5.50
2019-03-19T07:43:00.193Z,5.60
2019-03-19T07:46:04.667Z,5.60
2019-03-19T07:49:09.075Z,5.70
2019-03-19T07:52:13.476Z,5.80
2019-03-19T07:55:18.083Z,5.90
2019-03-19T07:58:32.746Z,5.90
2019-03-19T08:01:28.533Z,6.10
2019-03-19T08:04:32.892Z,6.20
2019-03-19T08:07:37.296Z,6.30
2019-03-19T08:10:41.598Z,6.30
2019-03-19T08:13:45.990Z,6.40
2019-03-19T08:16:50.350Z,6.60
2019-03-19T08:19:57.218Z,6.70
2019-03-19T08:23:01.239Z,6.80
2019-03-19T08:26:05.608Z,6.90
2019-03-19T08:29:09.966Z,7.00
2019-03-19T08:32:14.420Z,7.10
2019-03-19T08:35:18.802Z,7.20
2019-03-19T08:38:23.220Z,7.20
2019-03-19T08:41:27.590Z,7.40
2019-03-19T08:44:31.993Z,7.50
2019-03-19T08:47:38.428Z,7.60
2019-03-19T08:50:42.452Z,7.70
2019-03-19T08:53:46.808Z,7.80
2019-03-19T08:56:51.210Z,7.90
2019-03-19T08:59:57.246Z,8.00
2019-03-19T09:03:01.724Z,8.10
2019-03-19T09:06:06.088Z,8.20
2019-03-19T09:09:10.785Z,8.30
2019-03-19T09:12:15.149Z,8.40
2019-03-19T09:15:19.575Z,8.50
2019-03-19T09:18:23.934Z,8.60
2019-03-19T09:21:28.334Z,8.60
2019-03-19T09:24:32.715Z,8.60
2019-03-19T09:27:37.140Z,8.70
2019-03-19T09:30:41.737Z,8.70
2019-03-19T09:33:46.184Z,8.70
2019-03-19T09:36:57.203Z,8.80
2019-03-19T09:39:56.590Z,8.80
2019-03-19T09:43:00.948Z,8.90
2019-03-19T09:46:05.353Z,8.80
2019-03-19T09:49:09.696Z,8.80
2019-03-19T09:52:14.141Z,8.80
2019-03-19T09:55:18.505Z,8.80
2019-03-19T09:58:22.895Z,8.90
2019-03-19T10:01:27.241Z,8.90
2019-03-19T10:04:31.690Z,9.00
2019-03-19T10:07:36.036Z,9.10
2019-03-19T10:10:43.331Z,9.10
2019-03-19T10:13:47.830Z,9.20
2019-03-19T10:16:52.256Z,9.20
2019-03-19T10:19:56.572Z,9.30
2019-03-19T10:23:00.813Z,9.40
2019-03-19T10:26:05.376Z,9.60
2019-03-19T10:29:09.762Z,9.70
2019-03-19T10:32:14.123Z,9.80
2019-03-19T10:35:18.980Z,9.80
2019-03-19T10:38:23.308Z,9.80
2019-03-19T10:41:27.662Z,9.70
2019-03-19T10:44:32.007Z,9.70
2019-03-19T10:47:36.386Z,9.70
2019-03-19T10:50:40.755Z,9.70
2019-03-19T10:53:45.146Z,9.70
2019-03-19T10:56:49.500Z,9.70
2019-03-19T10:59:56.031Z,9.90
2019-03-19T11:03:03.075Z,10.00
2019-03-19T11:06:07.503Z,10.10
2019-03-19T11:09:11.866Z,10.20
2019-03-19T11:12:16.230Z,10.20
2019-03-19T11:15:20.668Z,10.20
2019-03-19T11:18:25.081Z,10.20
2019-03-19T11:21:29.416Z,10.20
2019-03-19T11:24:33.719Z,10.20
2019-03-19T11:27:37.994Z,10.30
2019-03-19T11:30:42.380Z,10.30
2019-03-19T11:33:47.713Z,10.30
2019-03-19T11:36:57.732Z,10.30
2019-03-19T11:39:58.294Z,10.30
2019-03-19T11:43:02.696Z,10.20
2019-03-19T11:46:07.047Z,10.20
2019-03-19T11:49:11.426Z,10.10
2019-03-19T11:52:15.786Z,10.00
2019-03-19T11:55:20.611Z,9.90
2019-03-19T11:58:24.978Z,9.80
2019-03-19T12:01:30.768Z,9.80
2019-03-19T12:04:35.266Z,9.80
2019-03-19T12:07:39.752Z,9.80
2019-03-19T12:10:44.110Z,9.90
2019-03-19T12:13:48.495Z,10.00
2019-03-19T12:16:52.840Z,10.10
2019-03-19T12:19:57.142Z,10.30
2019-03-19T12:23:01.495Z,10.60
2019-03-19T12:26:05.887Z,10.70
2019-03-19T12:29:10.238Z,10.80
2019-03-19T12:32:14.644Z,10.80
2019-03-19T12:35:19.640Z,10.80
2019-03-19T12:38:24.104Z,10.80
2019-03-19T12:41:28.386Z,10.70
2019-03-19T12:44:32.779Z,10.70
2019-03-19T12:47:37.177Z,10.60
2019-03-19T12:50:41.569Z,10.60
2019-03-19T12:53:45.860Z,10.70
2019-03-19T12:56:50.247Z,10.70
2019-03-19T12:59:54.537Z,10.80
2019-03-19T13:02:59.093Z,10.80
2019-03-19T13:06:03.412Z,10.80
2019-03-19T13:09:08.682Z,10.70
2019-03-19T13:12:13.075Z,10.70
2019-03-19T13:15:19.271Z,10.70
2019-03-19T13:18:23.912Z,10.70
2019-03-19T13:21:28.345Z,10.60
2019-03-19T13:24:32.618Z,10.60
2019-03-19T13:27:37.000Z,10.70
2019-03-19T13:30:45.432Z,10.80
2019-03-19T13:33:47.325Z,10.90
2019-03-19T13:36:51.690Z,11.10
2019-03-19T13:39:56.113Z,11.30
2019-03-19T13:43:00.476Z,11.40
2019-03-19T13:46:04.859Z,11.40
2019-03-19T13:49:09.208Z,11.50
2019-03-19T13:52:13.511Z,11.50
2019-03-19T13:55:17.917Z,11.40
2019-03-19T13:58:23.679Z,11.40
2019-03-19T14:01:27.980Z,11.30
2019-03-19T14:04:32.355Z,11.20
2019-03-19T14:07:36.776Z,11.10
2019-03-19T14:10:41.329Z,11.00
2019-03-19T14:13:45.686Z,10.90
2019-03-19T14:16:50.151Z,10.90
2019-03-19T14:19:54.513Z,10.80
2019-03-19T14:22:58.915Z,10.80
2019-03-19T14:26:03.283Z,10.70
2019-03-19T14:29:07.686Z,10.70
2019-03-19T14:32:12.045Z,10.60
2019-03-19T14:35:16.527Z,10.70
2019-03-19T14:38:21.107Z,10.70
2019-03-19T14:41:25.575Z,10.70
2019-03-19T14:44:29.928Z,10.30
2019-03-19T14:47:34.315Z,10.30
2019-03-19T14:50:38.707Z,10.50
2019-03-19T14:53:43.102Z,10.60
2019-03-19T14:56:47.443Z,10.90
2019-03-19T14:59:51.848Z,11.00
2019-03-19T15:02:56.494Z,11.00
2019-03-19T15:06:00.891Z,10.80
2019-03-19T15:09:07.159Z,10.70
2019-03-19T15:12:11.531Z,10.50
2019-03-19T15:15:16.351Z,10.30
2019-03-19T15:18:20.721Z,10.40
2019-03-19T15:21:25.097Z,10.50
2019-03-19T15:24:29.485Z,10.40
2019-03-19T15:27:33.842Z,10.20
2019-03-19T15:30:38.243Z,10.00
2019-03-19T15:33:42.586Z,9.80
2019-03-19T15:36:46.999Z,9.60
2019-03-19T15:39:51.363Z,9.50
2019-03-19T15:42:55.764Z,9.50
2019-03-19T15:46:00.137Z,9.70
2019-03-19T15:49:04.468Z,9.70
2019-03-19T15:52:08.841Z,9.80
2019-03-19T15:55:13.678Z,9.70
2019-03-19T15:58:18.060Z,9.60
2019-03-19T16:01:22.448Z,9.60
2019-03-19T16:04:26.814Z,9.50
2019-03-19T16:07:31.187Z,9.40
2019-03-19T16:10:35.573Z,9.30
2019-03-19T16:13:39.892Z,9.20
2019-03-19T16:16:44.265Z,9.00
2019-03-19T16:19:48.640Z,9.00
2019-03-19T16:22:53.010Z,8.90
2019-03-19T16:25:57.372Z,8.80
2019-03-19T16:29:01.665Z,8.60
2019-03-19T16:32:06.056Z,8.50
2019-03-19T16:35:10.559Z,8.40
2019-03-19T16:38:14.967Z,8.30
2019-03-19T16:41:21.975Z,8.30
2019-03-19T16:44:26.356Z,8.30
2019-03-19T16:47:30.640Z,8.20
2019-03-19T16:50:35.098Z,8.10
2019-03-19T16:53:39.572Z,8.00
2019-03-19T16:56:43.957Z,7.70
2019-03-19T16:59:48.321Z,7.70
2019-03-19T17:02:52.735Z,7.50
2019-03-19T17:05:57.135Z,7.50
2019-03-19T17:09:01.551Z,7.40
2019-03-19T17:12:06.133Z,7.20
2019-03-19T17:15:11.367Z,7.10
2019-03-19T17:18:15.778Z,6.80
2019-03-19T17:21:20.279Z,6.80
2019-03-19T17:24:24.631Z,6.80
2019-03-19T17:27:29.036Z,6.80
2019-03-19T17:30:33.429Z,6.80
2019-03-19T17:33:37.851Z,6.80
2019-03-19T17:36:42.259Z,6.70
2019-03-19T17:39:46.703Z,6.60
2019-03-19T17:42:51.129Z,6.30
2019-03-19T17:45:55.528Z,6.20
2019-03-19T17:48:59.918Z,6.20
2019-03-19T17:52:05.866Z,6.00
2019-03-19T17:55:12.148Z,5.70
2019-03-19T17:58:16.485Z,5.70
2019-03-19T18:01:20.864Z,5.90
2019-03-19T18:04:25.501Z,6.00
2019-03-19T18:07:29.925Z,6.10
2019-03-19T18:10:34.626Z,6.10
2019-03-19T18:13:40.778Z,6.10
2019-03-19T18:16:45.191Z,6.10
2019-03-19T18:19:49.599Z,6.10
2019-03-19T18:22:54.272Z,6.10
2019-03-19T18:25:58.819Z,5.80
2019-03-19T18:29:22.320Z,5.80
2019-03-19T18:32:34.643Z,5.90
2019-03-19T18:35:32.854Z,5.90
2019-03-19T18:38:37.267Z,5.90
2019-03-19T18:41:41.685Z,5.80
2019-03-19T18:44:46.134Z,5.90
2019-03-19T18:47:50.582Z,5.90
2019-03-19T18:50:55.041Z,5.90
2019-03-19T18:54:01.881Z,5.90
2019-03-19T18:57:06.291Z,5.90
2019-03-19T19:00:14.349Z,5.90
2019-03-19T19:03:20.561Z,5.90
2019-03-19T19:06:25.069Z,5.80
2019-03-19T19:09:29.582Z,5.80
2019-03-19T19:12:33.981Z,5.80
2019-03-19T19:15:41.682Z,5.80
2019-03-19T19:18:48.686Z,5.70
2019-03-19T19:21:53.106Z,5.70
2019-03-19T19:24:57.520Z,5.70
2019-03-19T19:28:01.912Z,5.60
2019-03-19T19:31:06.417Z,5.60
2019-03-19T19:34:10.839Z,5.60
2019-03-19T19:37:15.471Z,5.50
2019-03-19T19:40:19.867Z,5.50
2019-03-19T19:43:24.291Z,5.50
2019-03-19T19:46:29.916Z,5.50
2019-03-19T19:49:34.340Z,5.40
2019-03-19T19:52:38.773Z,5.40
2019-03-19T19:55:43.211Z,5.40
2019-03-19T19:58:47.588Z,5.30
2019-03-19T20:01:52.065Z,5.30
2019-03-19T20:05:02.991Z,5.30
2019-03-19T20:08:02.520Z,5.20
2019-03-19T20:11:06.895Z,4.30
2019-03-19T20:14:11.672Z,4.00
2019-03-19T20:17:18.013Z,3.80
2019-03-19T20:20:22.491Z,3.70
2019-03-19T20:23:26.938Z,3.40
2019-03-19T20:26:32.845Z,3.20
2019-03-19T20:29:39.311Z,3.00
2019-03-19T20:32:43.664Z,2.80
2019-03-19T20:35:47.980Z,2.50
2019-03-19T20:38:52.569Z,2.40
2019-03-19T20:41:56.939Z,2.50
2019-03-19T20:45:01.354Z,2.30
2019-03-19T20:48:06.223Z,2.30
2019-03-19T20:51:10.646Z,2.10
2019-03-19T20:54:15.714Z,2.10
2019-03-19T20:57:20.428Z,2.10
2019-03-19T21:00:24.838Z,2.00
2019-03-19T21:03:35.906Z,1.70
2019-03-19T21:06:35.410Z,1.50
2019-03-19T21:09:39.909Z,1.50
2019-03-19T21:12:44.289Z,1.30
2019-03-19T21:15:48.771Z,1.30
2019-03-19T21:18:53.158Z,1.20
2019-03-19T21:21:57.579Z,1.20
2019-03-19T21:25:01.969Z,1.20
2019-03-19T21:28:13.986Z,1.10
2019-03-19T21:31:12.491Z,1.10
2019-03-19T21:34:17.137Z,1.00
2019-03-19T21:37:21.485Z,1.00
2019-03-19T21:40:25.986Z,1.10
2019-03-19T21:43:30.656Z,1.10
2019-03-19T21:46:35.012Z,1.10
2019-03-19T21:49:45.023Z,1.10
2019-03-19T21:52:48.544Z,0.90
2019-03-19T21:55:52.940Z,1.00
2019-03-19T21:58:58.510Z,0.90
2019-03-19T22:02:02.862Z,1.00
2019-03-19T22:05:07.754Z,0.90
2019-03-19T22:08:12.123Z,0.90
2019-03-19T22:11:16.522Z,0.80
2019-03-19T22:14:22.410Z,0.90
2019-03-19T22:17:26.807Z,0.70
2019-03-19T22:20:31.209Z,0.80
2019-03-19T22:23:35.588Z,0.60
2019-03-19T22:26:40.004Z,0.60
2019-03-19T22:29:44.395Z,0.60
2019-03-19T22:32:48.757Z,0.60
2019-03-19T22:35:53.376Z,0.60
2019-03-19T22:38:57.865Z,0.60
2019-03-19T22:42:02.386Z,0.60
2019-03-19T22:45:08.075Z,0.50
2019-03-19T22:48:33.395Z,0.50
2019-03-19T22:51:37.923Z,0.50
2019-03-19T22:54:45.317Z,0.50
2019-03-19T22:57:49.819Z,0.50
2019-03-19T23:00:57.694Z,0.30
2019-03-19T23:04:03.531Z,0.40
2019-03-19T23:07:09.755Z,0.30
2019-03-19T23:10:14.339Z,0.30
2019-03-19T23:13:20.609Z,0.20
2019-03-19T23:16:25.119Z,0.30
2019-03-19T23:19:29.628Z,0.20
2019-03-19T23:22:35.598Z,0.20
2019-03-19T23:25:40.126Z,0.10
2019-03-19T23:28:44.624Z,0.20
2019-03-19T23:31:48.987Z,0.20
2019-03-19T23:34:53.268Z,0.20
2019-03-19T23:37:57.718Z,0.20
2019-03-19T23:41:02.087Z,0.30
2019-03-19T23:44:06.486Z,0.30
2019-03-19T23:47:29.974Z,0.30
2019-03-19T23:50:34.389Z,0.20
2019-03-19T23:53:39.226Z,0.10
2019-03-19T23:56:43.615Z,-0.10
2019-03-19T23:59:47.965Z,0.10
